sensor_id;sensor_type;location;lat;lon;timestamp;pressure;altitude;pressure_sealevel;temperature;humidity
44926;BME280;30662;51.210;7.656;2023-06-22T00:00:33;154045.66;;;21.01;82.82
44926;BME280;30662;51.210;7.656;2023-06-22T00:02:59;154004.81;;;20.85;84.09
44926;BME280;30662;51.210;7.656;2023-06-22T00:05:25;154007.41;;;20.86;84.29
44926;BME280;30662;51.210;7.656;2023-06-22T00:07:52;153971.72;;;20.72;85.03
44926;BME280;30662;51.210;7.656;2023-06-22T00:10:18;153998.47;;;20.82;85.15
44926;BME280;30662;51.210;7.656;2023-06-22T00:12:44;154007.41;;;20.86;85.17
44926;BME280;30662;51.210;7.656;2023-06-22T00:15:10;154036.69;;;20.98;84.62
44926;BME280;30662;51.210;7.656;2023-06-22T00:17:36;154007.41;;;20.86;85.48
44926;BME280;30662;51.210;7.656;2023-06-22T00:20:02;154008.69;;;20.86;85.81
44926;BME280;30662;51.210;7.656;2023-06-22T00:22:32;154002.28;;;20.84;85.90
44926;BME280;30662;51.210;7.656;2023-06-22T00:25:06;153989.56;;;20.79;87.02
44926;BME280;30662;51.210;7.656;2023-06-22T00:27:32;154007.41;;;20.86;86.77
44926;BME280;30662;51.210;7.656;2023-06-22T00:29:58;154003.53;;;20.84;87.70
44926;BME280;30662;51.210;7.656;2023-06-22T00:32:24;154022.66;;;20.92;87.09
44926;BME280;30662;51.210;7.656;2023-06-22T00:34:50;154007.41;;;20.86;87.52
44926;BME280;30662;51.210;7.656;2023-06-22T00:37:16;153953.88;;;20.64;88.93
44926;BME280;30662;51.210;7.656;2023-06-22T00:39:44;153979.34;;;20.75;88.64
44926;BME280;30662;51.210;7.656;2023-06-22T00:42:10;153951.28;;;20.63;89.61
44926;BME280;30662;51.210;7.656;2023-06-22T00:44:36;153951.28;;;20.63;90.00
44926;BME280;30662;51.210;7.656;2023-06-22T00:47:03;153946.19;;;20.61;90.12
44926;BME280;30662;51.210;7.656;2023-06-22T00:49:29;153919.44;;;20.51;90.66
44926;BME280;30662;51.210;7.656;2023-06-22T00:51:57;153906.69;;;20.46;91.65
44926;BME280;30662;51.210;7.656;2023-06-22T00:54:24;153920.72;;;20.51;90.89
44926;BME280;30662;51.210;7.656;2023-06-22T00:56:53;153872.22;;;20.32;92.17
44926;BME280;30662;51.210;7.656;2023-06-22T00:59:23;153867.16;;;20.30;92.79
44926;BME280;30662;51.210;7.656;2023-06-22T01:01:49;153896.44;;;20.42;92.29
44926;BME280;30662;51.210;7.656;2023-06-22T01:04:15;153906.69;;;20.46;91.63
44926;BME280;30662;51.210;7.656;2023-06-22T01:06:50;153888.81;;;20.38;92.24
44926;BME280;30662;51.210;7.656;2023-06-22T01:09:23;153907.97;;;20.46;92.25
44926;BME280;30662;51.210;7.656;2023-06-22T01:11:55;153910.50;;;20.47;92.20
44926;BME280;30662;51.210;7.656;2023-06-22T01:14:41;153906.69;;;20.46;92.32
44926;BME280;30662;51.210;7.656;2023-06-22T01:17:08;153882.44;;;20.36;93.15
44926;BME280;30662;51.210;7.656;2023-06-22T01:19:46;153918.19;;;20.50;92.94
44926;BME280;30662;51.210;7.656;2023-06-22T01:22:17;153925.81;;;20.53;91.68
44926;BME280;30662;51.210;7.656;2023-06-22T01:24:55;153909.22;;;20.47;92.90
44926;BME280;30662;51.210;7.656;2023-06-22T01:30:08;153839.09;;;20.19;94.54
44926;BME280;30662;51.210;7.656;2023-06-22T01:32:37;153869.69;;;20.31;93.57
44926;BME280;30662;51.210;7.656;2023-06-22T01:35:06;153882.44;;;20.36;93.42
44926;BME280;30662;51.210;7.656;2023-06-22T01:37:35;153891.34;;;20.39;93.69
44926;BME280;30662;51.210;7.656;2023-06-22T01:40:04;153906.69;;;20.46;93.79
44926;BME280;30662;51.210;7.656;2023-06-22T01:42:32;153896.44;;;20.42;93.72
44926;BME280;30662;51.210;7.656;2023-06-22T01:44:59;153907.97;;;20.46;93.64
44926;BME280;30662;51.210;7.656;2023-06-22T01:47:26;153915.59;;;20.49;93.67
44926;BME280;30662;51.210;7.656;2023-06-22T01:49:53;153922.00;;;20.52;93.76
44926;BME280;30662;51.210;7.656;2023-06-22T01:52:20;153923.25;;;20.52;94.01
44926;BME280;30662;51.210;7.656;2023-06-22T01:54:47;153885.00;;;20.37;95.33
44926;BME280;30662;51.210;7.656;2023-06-22T01:57:14;153872.22;;;20.32;96.08
44926;BME280;30662;51.210;7.656;2023-06-22T01:59:53;153869.69;;;20.31;96.67
44926;BME280;30662;51.210;7.656;2023-06-22T02:02:22;153892.63;;;20.40;96.50
44926;BME280;30662;51.210;7.656;2023-06-22T02:05:03;153885.00;;;20.37;97.11
44926;BME280;30662;51.210;7.656;2023-06-22T02:07:41;153868.41;;;20.30;97.88
44926;BME280;30662;51.210;7.656;2023-06-22T02:10:13;153883.72;;;20.36;97.61
44926;BME280;30662;51.210;7.656;2023-06-22T02:12:42;153902.88;;;20.44;97.12
44926;BME280;30662;51.210;7.656;2023-06-22T02:15:10;153867.16;;;20.30;98.10
44926;BME280;30662;51.210;7.656;2023-06-22T02:17:38;153876.03;;;20.33;98.40
44926;BME280;30662;51.210;7.656;2023-06-22T02:20:04;153910.50;;;20.47;97.93
44926;BME280;30662;51.210;7.656;2023-06-22T02:22:34;153902.88;;;20.44;98.02
44926;BME280;30662;51.210;7.656;2023-06-22T02:25:00;153913.03;;;20.48;97.92
44926;BME280;30662;51.210;7.656;2023-06-22T02:27:26;153891.34;;;20.39;98.46
44926;BME280;30662;51.210;7.656;2023-06-22T02:29:52;153886.25;;;20.37;98.91
44926;BME280;30662;51.210;7.656;2023-06-22T02:32:17;153882.44;;;20.36;99.49
44926;BME280;30662;51.210;7.656;2023-06-22T02:34:43;153864.59;;;20.29;100.00
44926;BME280;30662;51.210;7.656;2023-06-22T02:37:13;153837.81;;;20.18;100.00
44926;BME280;30662;51.210;7.656;2023-06-22T02:39:40;153856.94;;;20.26;100.00
44926;BME280;30662;51.210;7.656;2023-06-22T02:42:06;153831.47;;;20.16;100.00
44926;BME280;30662;51.210;7.656;2023-06-22T02:44:32;153789.38;;;19.99;100.00
44926;BME280;30662;51.210;7.656;2023-06-22T02:46:58;153785.56;;;19.97;100.00
44926;BME280;30662;51.210;7.656;2023-06-22T02:49:24;153783.03;;;19.96;100.00
44926;BME280;30662;51.210;7.656;2023-06-22T02:51:50;153807.22;;;20.06;100.00
44926;BME280;30662;51.210;7.656;2023-06-22T02:54:16;153774.16;;;19.93;100.00
44926;BME280;30662;51.210;7.656;2023-06-22T02:56:42;153788.13;;;19.98;100.00
44926;BME280;30662;51.210;7.656;2023-06-22T02:59:11;153755.03;;;19.85;100.00
44926;BME280;30662;51.210;7.656;2023-06-22T03:01:37;153752.44;;;19.84;100.00
44926;BME280;30662;51.210;7.656;2023-06-22T03:04:09;153766.47;;;19.90;100.00
44926;BME280;30662;51.210;7.656;2023-06-22T03:06:35;153747.38;;;19.82;100.00
44926;BME280;30662;51.210;7.656;2023-06-22T03:09:05;153752.44;;;19.84;100.00
44926;BME280;30662;51.210;7.656;2023-06-22T03:11:31;153739.75;;;19.79;100.00
44926;BME280;30662;51.210;7.656;2023-06-22T03:13:58;153772.88;;;19.92;100.00
44926;BME280;30662;51.210;7.656;2023-06-22T03:16:24;153769.00;;;19.91;100.00
44926;BME280;30662;51.210;7.656;2023-06-22T03:18:50;153763.94;;;19.89;100.00
44926;BME280;30662;51.210;7.656;2023-06-22T03:21:16;153738.47;;;19.78;100.00
44926;BME280;30662;51.210;7.656;2023-06-22T03:23:43;153729.53;;;19.75;100.00
44926;BME280;30662;51.210;7.656;2023-06-22T03:26:09;153735.94;;;19.77;100.00
44926;BME280;30662;51.210;7.656;2023-06-22T03:28:35;153753.75;;;19.85;100.00
44926;BME280;30662;51.210;7.656;2023-06-22T03:31:03;153771.56;;;19.92;100.00
44926;BME280;30662;51.210;7.656;2023-06-22T03:33:29;153805.94;;;20.05;100.00
44926;BME280;30662;51.210;7.656;2023-06-22T03:35:55;153805.94;;;20.05;100.00
44926;BME280;30662;51.210;7.656;2023-06-22T03:38:21;153826.38;;;20.14;100.00
44926;BME280;30662;51.210;7.656;2023-06-22T03:40:47;153836.56;;;20.18;100.00
44926;BME280;30662;51.210;7.656;2023-06-22T03:43:13;153830.19;;;20.15;100.00
44926;BME280;30662;51.210;7.656;2023-06-22T03:45:41;153819.97;;;20.11;100.00
44926;BME280;30662;51.210;7.656;2023-06-22T03:48:07;153821.25;;;20.11;100.00
44926;BME280;30662;51.210;7.656;2023-06-22T03:50:33;153795.78;;;20.01;100.00
44926;BME280;30662;51.210;7.656;2023-06-22T03:52:59;153742.28;;;19.80;100.00
44926;BME280;30662;51.210;7.656;2023-06-22T03:55:24;153797.06;;;20.02;100.00
44926;BME280;30662;51.210;7.656;2023-06-22T03:57:50;153772.88;;;19.92;100.00
44926;BME280;30662;51.210;7.656;2023-06-22T04:00:16;153735.94;;;19.77;100.00
44926;BME280;30662;51.210;7.656;2023-06-22T04:02:42;153718.09;;;19.70;100.00
44926;BME280;30662;51.210;7.656;2023-06-22T04:05:09;153686.25;;;19.58;100.00
44926;BME280;30662;51.210;7.656;2023-06-22T04:07:35;153714.22;;;19.69;100.00
44926;BME280;30662;51.210;7.656;2023-06-22T04:10:04;153679.78;;;19.55;100.00
44926;BME280;30662;51.210;7.656;2023-06-22T04:12:30;153632.69;;;19.36;100.00
44926;BME280;30662;51.210;7.656;2023-06-22T04:14:56;153649.25;;;19.43;100.00
44926;BME280;30662;51.210;7.656;2023-06-22T04:17:21;153664.53;;;19.49;100.00
44926;BME280;30662;51.210;7.656;2023-06-22T04:19:51;153642.84;;;19.40;100.00
44926;BME280;30662;51.210;7.656;2023-06-22T04:22:17;153650.53;;;19.43;100.00
44926;BME280;30662;51.210;7.656;2023-06-22T04:24:43;153585.56;;;19.17;100.00
44926;BME280;30662;51.210;7.656;2023-06-22T04:27:09;153618.69;;;19.31;100.00
44926;BME280;30662;51.210;7.656;2023-06-22T04:29:35;153640.31;;;19.39;100.00
44926;BME280;30662;51.210;7.656;2023-06-22T04:32:01;153586.81;;;19.18;100.00
44926;BME280;30662;51.210;7.656;2023-06-22T04:34:31;153576.66;;;19.14;100.00
44926;BME280;30662;51.210;7.656;2023-06-22T04:36:57;153566.47;;;19.10;100.00
44926;BME280;30662;51.210;7.656;2023-06-22T04:39:24;153502.81;;;18.84;100.00
44926;BME280;30662;51.210;7.656;2023-06-22T04:41:50;153490.09;;;18.79;100.00
44926;BME280;30662;51.210;7.656;2023-06-22T04:44:19;153506.63;;;18.86;100.00
44926;BME280;30662;51.210;7.656;2023-06-22T04:46:56;153516.78;;;18.90;100.00
44926;BME280;30662;51.210;7.656;2023-06-22T04:49:35;153488.81;;;18.79;100.00
44926;BME280;30662;51.210;7.656;2023-06-22T04:52:10;153483.72;;;18.77;100.00
44926;BME280;30662;51.210;7.656;2023-06-22T04:54:37;153491.34;;;18.80;100.00
44926;BME280;30662;51.210;7.656;2023-06-22T04:57:07;153472.25;;;18.72;100.00
44926;BME280;30662;51.210;7.656;2023-06-22T04:59:37;153478.59;;;18.74;100.00
44926;BME280;30662;51.210;7.656;2023-06-22T05:02:05;153504.09;;;18.85;100.00
44926;BME280;30662;51.210;7.656;2023-06-22T05:04:34;153469.72;;;18.71;100.00
44926;BME280;30662;51.210;7.656;2023-06-22T05:07:07;153528.28;;;18.94;100.00
44926;BME280;30662;51.210;7.656;2023-06-22T05:09:33;153511.72;;;18.88;100.00
44926;BME280;30662;51.210;7.656;2023-06-22T05:12:00;153501.56;;;18.84;100.00
44926;BME280;30662;51.210;7.656;2023-06-22T05:14:29;153492.63;;;18.80;100.00
44926;BME280;30662;51.210;7.656;2023-06-22T05:16:55;153490.09;;;18.79;100.00
44926;BME280;30662;51.210;7.656;2023-06-22T05:19:25;153507.91;;;18.86;100.00
44926;BME280;30662;51.210;7.656;2023-06-22T05:21:56;153529.53;;;18.95;100.00
44926;BME280;30662;51.210;7.656;2023-06-22T05:24:22;153511.72;;;18.88;100.00
44926;BME280;30662;51.210;7.656;2023-06-22T05:26:48;153544.81;;;19.01;100.00
44926;BME280;30662;51.210;7.656;2023-06-22T05:29:14;153555.03;;;19.05;100.00
44926;BME280;30662;51.210;7.656;2023-06-22T05:31:40;153493.88;;;18.81;100.00
44926;BME280;30662;51.210;7.656;2023-06-22T05:34:07;153515.53;;;18.89;100.00
44926;BME280;30662;51.210;7.656;2023-06-22T05:36:33;153523.19;;;18.92;100.00
44926;BME280;30662;51.210;7.656;2023-06-22T05:38:58;153562.66;;;19.08;100.00
44926;BME280;30662;51.210;7.656;2023-06-22T05:41:24;153570.28;;;19.11;100.00
44926;BME280;30662;51.210;7.656;2023-06-22T05:43:50;153590.69;;;19.19;100.00
44926;BME280;30662;51.210;7.656;2023-06-22T05:46:16;153599.56;;;19.23;100.00
44926;BME280;30662;51.210;7.656;2023-06-22T05:48:42;153607.19;;;19.26;100.00
44926;BME280;30662;51.210;7.656;2023-06-22T05:51:08;153600.84;;;19.23;100.00
44926;BME280;30662;51.210;7.656;2023-06-22T05:53:34;153639.03;;;19.39;100.00
44926;BME280;30662;51.210;7.656;2023-06-22T05:56:00;153695.13;;;19.61;100.00
44926;BME280;30662;51.210;7.656;2023-06-22T05:58:26;153693.84;;;19.61;100.00
44926;BME280;30662;51.210;7.656;2023-06-22T06:00:51;153707.88;;;19.66;100.00
44926;BME280;30662;51.210;7.656;2023-06-22T06:03:17;153702.81;;;19.64;100.00
44926;BME280;30662;51.210;7.656;2023-06-22T06:05:44;153727.00;;;19.74;100.00
44926;BME280;30662;51.210;7.656;2023-06-22T06:08:11;153753.75;;;19.85;100.00
44926;BME280;30662;51.210;7.656;2023-06-22T06:10:38;153747.38;;;19.82;100.00
44926;BME280;30662;51.210;7.656;2023-06-22T06:13:03;153732.06;;;19.76;100.00
44926;BME280;30662;51.210;7.656;2023-06-22T06:15:33;153728.25;;;19.74;100.00
44926;BME280;30662;51.210;7.656;2023-06-22T06:18:00;153743.56;;;19.80;100.00
44926;BME280;30662;51.210;7.656;2023-06-22T06:20:26;153763.94;;;19.89;100.00
44926;BME280;30662;51.210;7.656;2023-06-22T06:22:56;153762.66;;;19.88;100.00
44926;BME280;30662;51.210;7.656;2023-06-22T06:25:22;153799.59;;;20.03;100.00
44926;BME280;30662;51.210;7.656;2023-06-22T06:27:51;153781.75;;;19.96;100.00
44926;BME280;30662;51.210;7.656;2023-06-22T06:30:18;153816.16;;;20.09;100.00
44926;BME280;30662;51.210;7.656;2023-06-22T06:32:46;153794.53;;;20.01;100.00
44926;BME280;30662;51.210;7.656;2023-06-22T06:35:13;153821.25;;;20.11;100.00
44926;BME280;30662;51.210;7.656;2023-06-22T06:37:42;153831.47;;;20.16;100.00
44926;BME280;30662;51.210;7.656;2023-06-22T06:40:09;153874.78;;;20.33;100.00
44926;BME280;30662;51.210;7.656;2023-06-22T06:42:41;153850.56;;;20.23;100.00
44926;BME280;30662;51.210;7.656;2023-06-22T06:45:08;153923.25;;;20.52;100.00
44926;BME280;30662;51.210;7.656;2023-06-22T06:47:34;153974.25;;;20.73;100.00
44926;BME280;30662;51.210;7.656;2023-06-22T06:50:03;154009.94;;;20.87;100.00
44926;BME280;30662;51.210;7.656;2023-06-22T06:52:29;153979.34;;;20.75;100.00
44926;BME280;30662;51.210;7.656;2023-06-22T06:54:55;153976.78;;;20.74;100.00
44926;BME280;30662;51.210;7.656;2023-06-22T06:57:21;153966.59;;;20.70;100.00
44926;BME280;30662;51.210;7.656;2023-06-22T06:59:48;153992.09;;;20.80;100.00
44926;BME280;30662;51.210;7.656;2023-06-22T07:02:18;154008.69;;;20.86;100.00
44926;BME280;30662;51.210;7.656;2023-06-22T07:04:44;153972.97;;;20.72;100.00
44926;BME280;30662;51.210;7.656;2023-06-22T07:07:10;153999.72;;;20.83;100.00
44926;BME280;30662;51.210;7.656;2023-06-22T07:09:36;153984.44;;;20.77;100.00
44926;BME280;30662;51.210;7.656;2023-06-22T07:12:02;154006.09;;;20.85;100.00
44926;BME280;30662;51.210;7.656;2023-06-22T07:14:30;154011.22;;;20.87;100.00
44926;BME280;30662;51.210;7.656;2023-06-22T07:16:57;154053.28;;;21.04;100.00
44926;BME280;30662;51.210;7.656;2023-06-22T07:19:27;154040.50;;;20.99;100.00
44926;BME280;30662;51.210;7.656;2023-06-22T07:21:54;154041.78;;;21.00;100.00
44926;BME280;30662;51.210;7.656;2023-06-22T07:24:20;154050.72;;;21.03;100.00
44926;BME280;30662;51.210;7.656;2023-06-22T07:26:47;154034.16;;;20.97;100.00
44926;BME280;30662;51.210;7.656;2023-06-22T07:29:14;154064.75;;;21.09;100.00
44926;BME280;30662;51.210;7.656;2023-06-22T07:31:39;154080.06;;;21.15;100.00
44926;BME280;30662;51.210;7.656;2023-06-22T07:34:06;154111.97;;;21.28;100.00
44926;BME280;30662;51.210;7.656;2023-06-22T07:36:32;154113.22;;;21.28;100.00
44926;BME280;30662;51.210;7.656;2023-06-22T07:38:58;154120.91;;;21.31;100.00
44926;BME280;30662;51.210;7.656;2023-06-22T07:41:24;154105.56;;;21.25;100.00
44926;BME280;30662;51.210;7.656;2023-06-22T07:43:50;154108.09;;;21.26;100.00
44926;BME280;30662;51.210;7.656;2023-06-22T07:46:16;154122.19;;;21.32;100.00
44926;BME280;30662;51.210;7.656;2023-06-22T07:48:42;154193.59;;;21.60;100.00
44926;BME280;30662;51.210;7.656;2023-06-22T07:51:09;154180.81;;;21.55;100.00
44926;BME280;30662;51.210;7.656;2023-06-22T07:53:42;154228.03;;;21.74;100.00
44926;BME280;30662;51.210;7.656;2023-06-22T07:56:11;154219.09;;;21.70;100.00
44926;BME280;30662;51.210;7.656;2023-06-22T07:58:37;154243.34;;;21.80;100.00
44926;BME280;30662;51.210;7.656;2023-06-22T08:01:03;154282.88;;;21.96;100.00
44926;BME280;30662;51.210;7.656;2023-06-22T08:03:29;154370.97;;;22.31;100.00
44926;BME280;30662;51.210;7.656;2023-06-22T08:05:55;154370.97;;;22.31;100.00
44926;BME280;30662;51.210;7.656;2023-06-22T08:08:21;154414.31;;;22.48;100.00
44926;BME280;30662;51.210;7.656;2023-06-22T08:10:47;154410.50;;;22.47;100.00
44926;BME280;30662;51.210;7.656;2023-06-22T08:13:13;154457.69;;;22.66;100.00
44926;BME280;30662;51.210;7.656;2023-06-22T08:15:39;154499.84;;;22.82;100.00
44926;BME280;30662;51.210;7.656;2023-06-22T08:18:05;154542.00;;;22.99;100.00
44926;BME280;30662;51.210;7.656;2023-06-22T08:20:31;154542.00;;;22.99;100.00
44926;BME280;30662;51.210;7.656;2023-06-22T08:22:58;154572.66;;;23.11;100.00
44926;BME280;30662;51.210;7.656;2023-06-22T08:25:30;154599.44;;;23.22;100.00
44926;BME280;30662;51.210;7.656;2023-06-22T08:27:57;154635.19;;;23.36;100.00
44926;BME280;30662;51.210;7.656;2023-06-22T08:30:23;154609.66;;;23.26;100.00
44926;BME280;30662;51.210;7.656;2023-06-22T08:32:49;154616.03;;;23.29;100.00
44926;BME280;30662;51.210;7.656;2023-06-22T08:35:14;154635.19;;;23.36;100.00
44926;BME280;30662;51.210;7.656;2023-06-22T08:37:40;154633.91;;;23.36;100.00
44926;BME280;30662;51.210;7.656;2023-06-22T08:40:10;154582.81;;;23.16;100.00
44926;BME280;30662;51.210;7.656;2023-06-22T08:42:37;154630.09;;;23.34;100.00
44926;BME280;30662;51.210;7.656;2023-06-22T08:45:04;154630.09;;;23.34;100.00
44926;BME280;30662;51.210;7.656;2023-06-22T08:47:30;154653.03;;;23.44;100.00
44926;BME280;30662;51.210;7.656;2023-06-22T08:49:56;154651.78;;;23.43;100.00
44926;BME280;30662;51.210;7.656;2023-06-22T08:52:23;154664.56;;;23.48;100.00
44926;BME280;30662;51.210;7.656;2023-06-22T08:54:49;154679.88;;;23.54;100.00
44926;BME280;30662;51.210;7.656;2023-06-22T08:57:15;154738.66;;;23.78;100.00
44926;BME280;30662;51.210;7.656;2023-06-22T08:59:42;154696.50;;;23.61;100.00
44926;BME280;30662;51.210;7.656;2023-06-22T09:02:08;154796.13;;;24.01;100.00
44926;BME280;30662;51.210;7.656;2023-06-22T09:04:34;154885.59;;;24.36;100.00
44926;BME280;30662;51.210;7.656;2023-06-22T09:07:03;154824.25;;;24.12;96.63
44926;BME280;30662;51.210;7.656;2023-06-22T09:09:29;154851.03;;;24.23;95.59
44926;BME280;30662;51.210;7.656;2023-06-22T09:11:55;154899.66;;;24.42;94.39
44926;BME280;30662;51.210;7.656;2023-06-22T09:14:20;154922.63;;;24.51;96.29
44926;BME280;30662;51.210;7.656;2023-06-22T09:16:46;154937.97;;;24.57;94.46
44926;BME280;30662;51.210;7.656;2023-06-22T09:19:13;155009.53;;;24.86;94.76
44926;BME280;30662;51.210;7.656;2023-06-22T09:21:39;154994.19;;;24.80;91.51
44926;BME280;30662;51.210;7.656;2023-06-22T09:24:05;154959.66;;;24.66;91.46
44926;BME280;30662;51.210;7.656;2023-06-22T09:26:31;154943.06;;;24.59;91.84
44926;BME280;30662;51.210;7.656;2023-06-22T09:28:57;154962.22;;;24.67;92.12
44926;BME280;30662;51.210;7.656;2023-06-22T09:31:23;154968.59;;;24.69;92.15
44926;BME280;30662;51.210;7.656;2023-06-22T09:33:52;154992.91;;;24.79;92.07
44926;BME280;30662;51.210;7.656;2023-06-22T09:36:18;154969.91;;;24.70;93.14
44926;BME280;30662;51.210;7.656;2023-06-22T09:38:44;154969.91;;;24.70;94.42
44926;BME280;30662;51.210;7.656;2023-06-22T09:41:10;154964.78;;;24.68;95.46
44926;BME280;30662;51.210;7.656;2023-06-22T09:43:36;154989.06;;;24.78;95.22
44926;BME280;30662;51.210;7.656;2023-06-22T09:46:02;154969.91;;;24.70;96.85
44926;BME280;30662;51.210;7.656;2023-06-22T09:48:28;155031.22;;;24.94;95.24
44926;BME280;30662;51.210;7.656;2023-06-22T09:50:56;155018.44;;;24.89;96.83
44926;BME280;30662;51.210;7.656;2023-06-22T09:53:22;155033.78;;;24.95;95.49
44926;BME280;30662;51.210;7.656;2023-06-22T09:55:47;155059.38;;;25.06;95.64
44926;BME280;30662;51.210;7.656;2023-06-22T09:58:13;155087.50;;;25.17;96.67
44926;BME280;30662;51.210;7.656;2023-06-22T10:00:39;155072.16;;;25.11;95.10
44926;BME280;30662;51.210;7.656;2023-06-22T10:03:07;155065.78;;;25.08;94.34
44926;BME280;30662;51.210;7.656;2023-06-22T10:05:33;155038.88;;;24.97;95.10
44926;BME280;30662;51.210;7.656;2023-06-22T10:07:59;155087.50;;;25.17;94.15
44926;BME280;30662;51.210;7.656;2023-06-22T10:10:25;155106.66;;;25.24;92.91
44926;BME280;30662;51.210;7.656;2023-06-22T10:12:55;155107.94;;;25.25;92.41
44926;BME280;30662;51.210;7.656;2023-06-22T10:15:22;155087.50;;;25.17;93.08
44926;BME280;30662;51.210;7.656;2023-06-22T10:17:48;155138.63;;;25.37;92.29
44926;BME280;30662;51.210;7.656;2023-06-22T10:20:14;155136.09;;;25.36;91.87
44926;BME280;30662;51.210;7.656;2023-06-22T10:22:44;155130.94;;;25.34;92.97
44926;BME280;30662;51.210;7.656;2023-06-22T10:25:12;155146.28;;;25.40;91.59
44926;BME280;30662;51.210;7.656;2023-06-22T10:27:38;155104.13;;;25.23;92.01
44926;BME280;30662;51.210;7.656;2023-06-22T10:30:08;155072.16;;;25.11;93.38
44926;BME280;30662;51.210;7.656;2023-06-22T10:32:35;155083.69;;;25.15;93.03
44926;BME280;30662;51.210;7.656;2023-06-22T10:35:02;155104.13;;;25.23;92.32
44926;BME280;30662;51.210;7.656;2023-06-22T10:37:28;155052.94;;;25.03;92.85
44926;BME280;30662;51.210;7.656;2023-06-22T10:39:54;155014.63;;;24.88;94.36
44926;BME280;30662;51.210;7.656;2023-06-22T10:42:20;154983.94;;;24.75;95.83
44926;BME280;30662;51.210;7.656;2023-06-22T10:44:46;154978.84;;;24.73;95.59
44926;BME280;30662;51.210;7.656;2023-06-22T10:47:11;154945.59;;;24.60;96.16
44926;BME280;30662;51.210;7.656;2023-06-22T10:49:38;154899.66;;;24.42;96.97
44926;BME280;30662;51.210;7.656;2023-06-22T10:52:08;154865.09;;;24.28;97.51
44926;BME280;30662;51.210;7.656;2023-06-22T10:54:35;154866.38;;;24.29;99.62
44926;BME280;30662;51.210;7.656;2023-06-22T10:57:02;154861.28;;;24.27;99.41
44926;BME280;30662;51.210;7.656;2023-06-22T10:59:28;154788.47;;;23.98;100.00
44926;BME280;30662;51.210;7.656;2023-06-22T11:01:55;154757.81;;;23.85;100.00
44926;BME280;30662;51.210;7.656;2023-06-22T11:04:22;154747.56;;;23.81;100.00
44926;BME280;30662;51.210;7.656;2023-06-22T11:06:48;154706.72;;;23.65;100.00
44926;BME280;30662;51.210;7.656;2023-06-22T11:09:15;154672.19;;;23.51;100.00
44926;BME280;30662;51.210;7.656;2023-06-22T11:11:52;154674.75;;;23.52;100.00
44926;BME280;30662;51.210;7.656;2023-06-22T11:14:22;154645.41;;;23.41;100.00
44926;BME280;30662;51.210;7.656;2023-06-22T11:16:49;154644.13;;;23.40;100.00
44926;BME280;30662;51.210;7.656;2023-06-22T11:19:15;154628.81;;;23.34;100.00
44926;BME280;30662;51.210;7.656;2023-06-22T11:21:41;154614.75;;;23.28;100.00
44926;BME280;30662;51.210;7.656;2023-06-22T11:24:06;154564.94;;;23.08;100.00
44926;BME280;30662;51.210;7.656;2023-06-22T11:26:33;154548.34;;;23.02;100.00
44926;BME280;30662;51.210;7.656;2023-06-22T11:28:59;154521.56;;;22.91;100.00
44926;BME280;30662;51.210;7.656;2023-06-22T11:31:25;154488.34;;;22.78;100.00
44926;BME280;30662;51.210;7.656;2023-06-22T11:33:52;154469.19;;;22.70;100.00
44926;BME280;30662;51.210;7.656;2023-06-22T11:36:18;154456.41;;;22.65;100.00
44926;BME280;30662;51.210;7.656;2023-06-22T11:38:44;154425.81;;;22.53;100.00
44926;BME280;30662;51.210;7.656;2023-06-22T11:41:10;154446.25;;;22.61;100.00
44926;BME280;30662;51.210;7.656;2023-06-22T11:43:36;154452.59;;;22.64;100.00
44926;BME280;30662;51.210;7.656;2023-06-22T11:46:03;154438.56;;;22.58;100.00
44926;BME280;30662;51.210;7.656;2023-06-22T11:48:30;154388.81;;;22.38;100.00
44926;BME280;30662;51.210;7.656;2023-06-22T11:50:56;154326.28;;;22.13;100.00
44926;BME280;30662;51.210;7.656;2023-06-22T11:53:25;154222.91;;;21.72;100.00
44926;BME280;30662;51.210;7.656;2023-06-22T11:55:51;154220.34;;;21.71;100.00
44926;BME280;30662;51.210;7.656;2023-06-22T11:58:18;154192.31;;;21.60;100.00
44926;BME280;30662;51.210;7.656;2023-06-22T12:00:44;154217.81;;;21.70;100.00
44926;BME280;30662;51.210;7.656;2023-06-22T12:03:18;154220.34;;;21.71;100.00
44926;BME280;30662;51.210;7.656;2023-06-22T12:05:44;154201.22;;;21.63;100.00
44926;BME280;30662;51.210;7.656;2023-06-22T12:08:10;154203.78;;;21.64;100.00
44926;BME280;30662;51.210;7.656;2023-06-22T12:10:36;154233.13;;;21.76;100.00
44926;BME280;30662;51.210;7.656;2023-06-22T12:13:01;154214.00;;;21.68;100.00
44926;BME280;30662;51.210;7.656;2023-06-22T12:15:27;154126.00;;;21.33;100.00
44926;BME280;30662;51.210;7.656;2023-06-22T12:17:53;154085.16;;;21.17;100.00
44926;BME280;30662;51.210;7.656;2023-06-22T12:20:19;154114.50;;;21.29;100.00
44926;BME280;30662;51.210;7.656;2023-06-22T12:22:45;154117.09;;;21.30;100.00
44926;BME280;30662;51.210;7.656;2023-06-22T12:25:11;154137.50;;;21.38;100.00
44926;BME280;30662;51.210;7.656;2023-06-22T12:27:37;154152.81;;;21.44;100.00
44926;BME280;30662;51.210;7.656;2023-06-22T12:30:04;154159.16;;;21.46;100.00
44926;BME280;30662;51.210;7.656;2023-06-22T12:32:30;154159.16;;;21.46;100.00
44926;BME280;30662;51.210;7.656;2023-06-22T12:34:56;154154.06;;;21.44;100.00
44926;BME280;30662;51.210;7.656;2023-06-22T12:37:22;154168.06;;;21.50;100.00
44926;BME280;30662;51.210;7.656;2023-06-22T12:39:48;154168.06;;;21.50;100.00
44926;BME280;30662;51.210;7.656;2023-06-22T12:42:17;154160.44;;;21.47;100.00
44926;BME280;30662;51.210;7.656;2023-06-22T12:44:43;154162.97;;;21.48;100.00